sensor_id;sensor_type;location;lat;lon;timestamp;P1;durP1;ratioP1;P2;durP2;ratioP2
48873;SDS011;66155;46.204;5.220;2024-03-17T00:04:28;10.20;;;4.30;;
48873;SDS011;66155;46.204;5.220;2024-03-17T00:09:28;10.52;;;4.97;;
48873;SDS011;66155;46.204;5.220;2024-03-17T00:14:29;12.07;;;5.90;;
48873;SDS011;66155;46.204;5.220;2024-03-17T00:19:29;12.27;;;6.15;;
48873;SDS011;66155;46.204;5.220;2024-03-17T00:24:30;12.93;;;6.07;;
48873;SDS011;66155;46.204;5.220;2024-03-17T00:29:34;11.82;;;5.85;;
48873;SDS011;66155;46.204;5.220;2024-03-17T00:34:35;12.37;;;6.07;;
48873;SDS011;66155;46.204;5.220;2024-03-17T00:39:35;14.23;;;6.37;;
48873;SDS011;66155;46.204;5.220;2024-03-17T00:44:35;15.82;;;6.72;;
48873;SDS011;66155;46.204;5.220;2024-03-17T00:49:36;16.63;;;6.68;;
48873;SDS011;66155;46.204;5.220;2024-03-17T00:54:36;12.67;;;5.60;;
48873;SDS011;66155;46.204;5.220;2024-03-17T00:59:37;12.18;;;5.82;;
48873;SDS011;66155;46.204;5.220;2024-03-17T01:04:37;10.27;;;5.63;;
48873;SDS011;66155;46.204;5.220;2024-03-17T01:09:39;12.07;;;6.03;;
48873;SDS011;66155;46.204;5.220;2024-03-17T01:14:39;13.48;;;5.57;;
48873;SDS011;66155;46.204;5.220;2024-03-17T01:19:40;10.80;;;5.55;;
48873;SDS011;66155;46.204;5.220;2024-03-17T01:24:40;11.82;;;6.03;;
48873;SDS011;66155;46.204;5.220;2024-03-17T01:29:46;13.77;;;5.78;;
48873;SDS011;66155;46.204;5.220;2024-03-17T01:34:46;10.85;;;5.45;;
48873;SDS011;66155;46.204;5.220;2024-03-17T01:39:46;12.83;;;5.20;;
48873;SDS011;66155;46.204;5.220;2024-03-17T01:44:47;11.53;;;5.23;;
48873;SDS011;66155;46.204;5.220;2024-03-17T01:49:47;12.50;;;6.40;;
48873;SDS011;66155;46.204;5.220;2024-03-17T01:54:49;11.45;;;5.63;;
48873;SDS011;66155;46.204;5.220;2024-03-17T01:59:50;10.60;;;5.33;;
48873;SDS011;66155;46.204;5.220;2024-03-17T02:04:50;11.52;;;4.72;;
48873;SDS011;66155;46.204;5.220;2024-03-17T02:09:51;12.50;;;6.15;;
48873;SDS011;66155;46.204;5.220;2024-03-17T02:14:51;10.43;;;5.38;;
48873;SDS011;66155;46.204;5.220;2024-03-17T02:19:51;11.82;;;5.53;;
48873;SDS011;66155;46.204;5.220;2024-03-17T02:24:52;12.90;;;5.85;;
48873;SDS011;66155;46.204;5.220;2024-03-17T02:29:52;16.27;;;6.17;;
48873;SDS011;66155;46.204;5.220;2024-03-17T02:34:53;10.93;;;5.80;;
48873;SDS011;66155;46.204;5.220;2024-03-17T02:39:53;10.23;;;5.13;;
48873;SDS011;66155;46.204;5.220;2024-03-17T02:44:54;10.15;;;5.18;;
48873;SDS011;66155;46.204;5.220;2024-03-17T02:49:54;11.02;;;5.60;;
48873;SDS011;66155;46.204;5.220;2024-03-17T02:54:55;11.90;;;5.47;;
48873;SDS011;66155;46.204;5.220;2024-03-17T02:59:55;14.25;;;5.43;;
48873;SDS011;66155;46.204;5.220;2024-03-17T03:04:56;14.85;;;5.05;;
48873;SDS011;66155;46.204;5.220;2024-03-17T03:09:57;7.03;;;3.70;;
48873;SDS011;66155;46.204;5.220;2024-03-17T03:14:58;10.13;;;4.45;;
48873;SDS011;66155;46.204;5.220;2024-03-17T03:19:58;9.88;;;4.70;;
48873;SDS011;66155;46.204;5.220;2024-03-17T03:24:59;10.35;;;4.43;;
48873;SDS011;66155;46.204;5.220;2024-03-17T03:29:59;11.30;;;4.43;;
48873;SDS011;66155;46.204;5.220;2024-03-17T03:35:00;11.77;;;5.05;;
48873;SDS011;66155;46.204;5.220;2024-03-17T03:40:00;11.17;;;4.23;;
48873;SDS011;66155;46.204;5.220;2024-03-17T03:45:00;11.82;;;5.63;;
48873;SDS011;66155;46.204;5.220;2024-03-17T03:50:01;9.20;;;5.30;;
48873;SDS011;66155;46.204;5.220;2024-03-17T03:55:01;13.50;;;5.63;;
48873;SDS011;66155;46.204;5.220;2024-03-17T04:00:05;16.35;;;5.28;;
48873;SDS011;66155;46.204;5.220;2024-03-17T04:05:12;8.98;;;5.05;;
48873;SDS011;66155;46.204;5.220;2024-03-17T04:10:13;10.13;;;5.10;;
48873;SDS011;66155;46.204;5.220;2024-03-17T04:15:14;15.00;;;5.43;;
48873;SDS011;66155;46.204;5.220;2024-03-17T04:20:14;13.73;;;5.53;;
48873;SDS011;66155;46.204;5.220;2024-03-17T04:25:15;8.77;;;5.75;;
48873;SDS011;66155;46.204;5.220;2024-03-17T04:30:15;15.32;;;6.55;;
48873;SDS011;66155;46.204;5.220;2024-03-17T04:35:16;12.50;;;5.60;;
48873;SDS011;66155;46.204;5.220;2024-03-17T04:40:16;12.25;;;5.53;;
48873;SDS011;66155;46.204;5.220;2024-03-17T04:45:17;14.18;;;5.85;;
48873;SDS011;66155;46.204;5.220;2024-03-17T04:50:17;9.32;;;4.90;;
48873;SDS011;66155;46.204;5.220;2024-03-17T04:55:18;11.63;;;5.95;;
48873;SDS011;66155;46.204;5.220;2024-03-17T05:00:19;11.77;;;5.10;;
48873;SDS011;66155;46.204;5.220;2024-03-17T05:05:21;9.93;;;4.65;;
48873;SDS011;66155;46.204;5.220;2024-03-17T05:10:23;12.77;;;4.90;;
48873;SDS011;66155;46.204;5.220;2024-03-17T05:15:24;12.93;;;4.55;;
48873;SDS011;66155;46.204;5.220;2024-03-17T05:20:25;9.23;;;4.60;;
48873;SDS011;66155;46.204;5.220;2024-03-17T05:25:25;7.80;;;3.90;;
48873;SDS011;66155;46.204;5.220;2024-03-17T05:30:25;9.93;;;4.10;;
48873;SDS011;66155;46.204;5.220;2024-03-17T05:35:26;11.35;;;5.15;;
48873;SDS011;66155;46.204;5.220;2024-03-17T05:40:27;6.55;;;3.88;;
48873;SDS011;66155;46.204;5.220;2024-03-17T05:45:29;8.07;;;4.22;;
48873;SDS011;66155;46.204;5.220;2024-03-17T05:50:29;9.70;;;4.27;;
48873;SDS011;66155;46.204;5.220;2024-03-17T05:55:30;12.57;;;4.17;;
48873;SDS011;66155;46.204;5.220;2024-03-17T06:00:30;7.97;;;3.78;;
48873;SDS011;66155;46.204;5.220;2024-03-17T06:05:31;8.65;;;3.55;;
48873;SDS011;66155;46.204;5.220;2024-03-17T06:10:35;11.10;;;3.90;;
48873;SDS011;66155;46.204;5.220;2024-03-17T06:15:37;12.30;;;3.50;;
48873;SDS011;66155;46.204;5.220;2024-03-17T06:20:41;11.65;;;3.33;;
48873;SDS011;66155;46.204;5.220;2024-03-17T06:25:46;8.90;;;3.58;;
48873;SDS011;66155;46.204;5.220;2024-03-17T06:30:54;11.07;;;4.70;;
48873;SDS011;66155;46.204;5.220;2024-03-17T06:35:56;7.07;;;3.90;;
48873;SDS011;66155;46.204;5.220;2024-03-17T06:40:57;5.38;;;2.80;;
48873;SDS011;66155;46.204;5.220;2024-03-17T06:45:58;9.50;;;3.00;;
48873;SDS011;66155;46.204;5.220;2024-03-17T06:50:59;6.28;;;2.67;;
48873;SDS011;66155;46.204;5.220;2024-03-17T06:55:59;6.70;;;3.10;;
48873;SDS011;66155;46.204;5.220;2024-03-17T07:01:00;5.75;;;4.03;;
48873;SDS011;66155;46.204;5.220;2024-03-17T07:06:04;5.63;;;3.10;;
48873;SDS011;66155;46.204;5.220;2024-03-17T07:11:06;8.38;;;2.88;;
48873;SDS011;66155;46.204;5.220;2024-03-17T07:16:07;6.70;;;2.78;;
48873;SDS011;66155;46.204;5.220;2024-03-17T07:21:08;6.22;;;2.90;;
48873;SDS011;66155;46.204;5.220;2024-03-17T07:26:10;6.03;;;3.00;;
48873;SDS011;66155;46.204;5.220;2024-03-17T07:31:10;5.47;;;2.72;;
48873;SDS011;66155;46.204;5.220;2024-03-17T07:36:11;7.20;;;2.95;;
48873;SDS011;66155;46.204;5.220;2024-03-17T07:41:12;6.25;;;3.15;;
48873;SDS011;66155;46.204;5.220;2024-03-17T07:46:12;5.23;;;3.47;;
48873;SDS011;66155;46.204;5.220;2024-03-17T07:51:14;9.57;;;3.35;;
48873;SDS011;66155;46.204;5.220;2024-03-17T07:56:15;4.63;;;3.17;;
48873;SDS011;66155;46.204;5.220;2024-03-17T08:01:16;7.25;;;3.17;;
48873;SDS011;66155;46.204;5.220;2024-03-17T08:06:16;7.40;;;3.33;;
48873;SDS011;66155;46.204;5.220;2024-03-17T08:11:17;6.88;;;3.70;;
48873;SDS011;66155;46.204;5.220;2024-03-17T08:16:17;7.85;;;3.30;;
48873;SDS011;66155;46.204;5.220;2024-03-17T08:21:18;5.72;;;2.65;;
48873;SDS011;66155;46.204;5.220;2024-03-17T08:26:18;6.23;;;3.27;;
48873;SDS011;66155;46.204;5.220;2024-03-17T08:31:18;7.30;;;3.13;;
48873;SDS011;66155;46.204;5.220;2024-03-17T08:36:19;8.57;;;3.28;;
48873;SDS011;66155;46.204;5.220;2024-03-17T08:41:21;6.53;;;3.03;;
48873;SDS011;66155;46.204;5.220;2024-03-17T08:46:21;8.33;;;2.73;;
48873;SDS011;66155;46.204;5.220;2024-03-17T08:51:21;7.33;;;3.03;;
48873;SDS011;66155;46.204;5.220;2024-03-17T08:56:22;5.20;;;3.07;;
48873;SDS011;66155;46.204;5.220;2024-03-17T09:01:23;7.05;;;3.10;;
48873;SDS011;66155;46.204;5.220;2024-03-17T09:06:24;4.40;;;2.92;;
48873;SDS011;66155;46.204;5.220;2024-03-17T09:11:27;4.85;;;2.90;;
48873;SDS011;66155;46.204;5.220;2024-03-17T09:16:28;7.50;;;3.10;;
48873;SDS011;66155;46.204;5.220;2024-03-17T09:21:30;7.18;;;3.67;;
48873;SDS011;66155;46.204;5.220;2024-03-17T09:26:30;8.32;;;4.88;;
48873;SDS011;66155;46.204;5.220;2024-03-17T09:31:31;6.18;;;3.53;;
48873;SDS011;66155;46.204;5.220;2024-03-17T09:36:34;7.75;;;2.90;;
48873;SDS011;66155;46.204;5.220;2024-03-17T09:41:35;8.82;;;3.75;;
48873;SDS011;66155;46.204;5.220;2024-03-17T09:46:38;5.88;;;3.33;;
48873;SDS011;66155;46.204;5.220;2024-03-17T09:51:39;4.55;;;2.67;;
48873;SDS011;66155;46.204;5.220;2024-03-17T09:56:39;8.07;;;3.40;;
48873;SDS011;66155;46.204;5.220;2024-03-17T10:01:40;8.65;;;3.20;;
48873;SDS011;66155;46.204;5.220;2024-03-17T10:06:45;9.60;;;3.20;;
48873;SDS011;66155;46.204;5.220;2024-03-17T10:11:50;8.35;;;2.95;;
48873;SDS011;66155;46.204;5.220;2024-03-17T10:16:51;5.03;;;2.73;;
48873;SDS011;66155;46.204;5.220;2024-03-17T10:21:58;9.95;;;3.17;;
48873;SDS011;66155;46.204;5.220;2024-03-17T10:27:01;8.40;;;3.55;;
48873;SDS011;66155;46.204;5.220;2024-03-17T10:32:03;6.30;;;3.60;;
48873;SDS011;66155;46.204;5.220;2024-03-17T10:42:12;6.63;;;3.10;;
48873;SDS011;66155;46.204;5.220;2024-03-17T10:47:25;8.25;;;3.30;;
48873;SDS011;66155;46.204;5.220;2024-03-17T10:52:27;5.80;;;2.90;;
48873;SDS011;66155;46.204;5.220;2024-03-17T10:57:35;9.55;;;3.55;;
48873;SDS011;66155;46.204;5.220;2024-03-17T11:02:45;8.10;;;3.72;;
48873;SDS011;66155;46.204;5.220;2024-03-17T11:07:46;6.72;;;3.20;;
48873;SDS011;66155;46.204;5.220;2024-03-17T11:12:53;4.90;;;3.65;;
48873;SDS011;66155;46.204;5.220;2024-03-17T11:23:09;4.68;;;3.30;;
48873;SDS011;66155;46.204;5.220;2024-03-17T11:38:51;9.05;;;3.67;;
48873;SDS011;66155;46.204;5.220;2024-03-17T11:44:27;8.40;;;3.03;;
48873;SDS011;66155;46.204;5.220;2024-03-17T11:49:39;8.77;;;2.95;;
48873;SDS011;66155;46.204;5.220;2024-03-17T11:54:41;9.50;;;3.70;;
48873;SDS011;66155;46.204;5.220;2024-03-17T11:59:44;6.97;;;4.22;;
48873;SDS011;66155;46.204;5.220;2024-03-17T12:04:45;8.73;;;3.55;;
48873;SDS011;66155;46.204;5.220;2024-03-17T12:09:46;4.60;;;3.13;;
48873;SDS011;66155;46.204;5.220;2024-03-17T12:14:47;8.15;;;2.90;;
48873;SDS011;66155;46.204;5.220;2024-03-17T12:19:49;5.15;;;3.22;;
48873;SDS011;66155;46.204;5.220;2024-03-17T12:24:51;6.20;;;3.10;;
48873;SDS011;66155;46.204;5.220;2024-03-17T12:29:58;5.82;;;2.65;;
48873;SDS011;66155;46.204;5.220;2024-03-17T12:34:59;5.78;;;3.58;;
48873;SDS011;66155;46.204;5.220;2024-03-17T12:40:00;6.93;;;3.47;;
48873;SDS011;66155;46.204;5.220;2024-03-17T12:45:01;6.53;;;3.28;;
48873;SDS011;66155;46.204;5.220;2024-03-17T12:50:05;3.30;;;3.00;;
48873;SDS011;66155;46.204;5.220;2024-03-17T12:55:17;5.38;;;3.40;;
48873;SDS011;66155;46.204;5.220;2024-03-17T13:00:37;5.30;;;3.30;;
48873;SDS011;66155;46.204;5.220;2024-03-17T13:05:38;3.33;;;3.00;;
48873;SDS011;66155;46.204;5.220;2024-03-17T13:10:38;3.30;;;3.00;;
48873;SDS011;66155;46.204;5.220;2024-03-17T13:15:38;6.50;;;3.63;;
48873;SDS011;66155;46.204;5.220;2024-03-17T13:20:39;3.67;;;3.00;;
48873;SDS011;66155;46.204;5.220;2024-03-17T13:25:39;4.63;;;3.90;;
48873;SDS011;66155;46.204;5.220;2024-03-17T13:30:43;7.00;;;6.43;;
48873;SDS011;66155;46.204;5.220;2024-03-17T13:35:43;3.20;;;2.90;;
48873;SDS011;66155;46.204;5.220;2024-03-17T13:40:44;4.65;;;2.80;;
48873;SDS011;66155;46.204;5.220;2024-03-17T13:45:44;6.07;;;5.60;;
48873;SDS011;66155;46.204;5.220;2024-03-17T13:50:47;4.88;;;2.75;;
48873;SDS011;66155;46.204;5.220;2024-03-17T13:55:49;3.38;;;3.08;;
48873;SDS011;66155;46.204;5.220;2024-03-17T14:00:51;4.95;;;3.30;;
48873;SDS011;66155;46.204;5.220;2024-03-17T14:05:53;3.60;;;3.35;;
48873;SDS011;66155;46.204;5.220;2024-03-17T14:10:53;6.17;;;3.40;;
48873;SDS011;66155;46.204;5.220;2024-03-17T14:15:56;4.77;;;3.17;;
48873;SDS011;66155;46.204;5.220;2024-03-17T14:20:57;4.05;;;3.70;;
48873;SDS011;66155;46.204;5.220;2024-03-17T14:25:57;4.87;;;2.97;;
48873;SDS011;66155;46.204;5.220;2024-03-17T14:30:58;5.68;;;3.30;;
48873;SDS011;66155;46.204;5.220;2024-03-17T14:35:58;4.07;;;2.60;;
48873;SDS011;66155;46.204;5.220;2024-03-17T14:40:58;4.20;;;2.60;;
48873;SDS011;66155;46.204;5.220;2024-03-17T14:45:59;4.37;;;3.33;;
48873;SDS011;66155;46.204;5.220;2024-03-17T14:50:59;4.37;;;3.17;;
48873;SDS011;66155;46.204;5.220;2024-03-17T14:55:59;7.17;;;3.27;;
48873;SDS011;66155;46.204;5.220;2024-03-17T15:01:00;6.33;;;3.13;;
48873;SDS011;66155;46.204;5.220;2024-03-17T15:06:00;6.57;;;3.70;;
48873;SDS011;66155;46.204;5.220;2024-03-17T15:11:01;7.05;;;5.05;;
48873;SDS011;66155;46.204;5.220;2024-03-17T15:16:02;5.53;;;2.70;;
48873;SDS011;66155;46.204;5.220;2024-03-17T15:21:04;3.88;;;2.92;;
48873;SDS011;66155;46.204;5.220;2024-03-17T15:26:07;3.95;;;3.10;;
48873;SDS011;66155;46.204;5.220;2024-03-17T15:31:08;10.27;;;3.38;;
48873;SDS011;66155;46.204;5.220;2024-03-17T15:36:10;5.05;;;3.38;;
48873;SDS011;66155;46.204;5.220;2024-03-17T15:41:10;5.17;;;3.17;;
48873;SDS011;66155;46.204;5.220;2024-03-17T15:46:13;6.30;;;3.13;;
48873;SDS011;66155;46.204;5.220;2024-03-17T15:51:16;3.57;;;2.90;;
48873;SDS011;66155;46.204;5.220;2024-03-17T15:56:18;4.95;;;2.13;;
48873;SDS011;66155;46.204;5.220;2024-03-17T16:01:18;4.27;;;2.70;;
48873;SDS011;66155;46.204;5.220;2024-03-17T16:06:19;5.20;;;2.90;;
48873;SDS011;66155;46.204;5.220;2024-03-17T16:11:26;5.88;;;3.30;;
48873;SDS011;66155;46.204;5.220;2024-03-17T16:16:28;4.30;;;2.90;;
48873;SDS011;66155;46.204;5.220;2024-03-17T16:21:31;5.10;;;3.83;;
48873;SDS011;66155;46.204;5.220;2024-03-17T16:26:32;4.68;;;2.97;;
48873;SDS011;66155;46.204;5.220;2024-03-17T16:31:37;4.82;;;2.90;;
48873;SDS011;66155;46.204;5.220;2024-03-17T16:36:39;5.35;;;3.00;;
48873;SDS011;66155;46.204;5.220;2024-03-17T16:41:41;5.70;;;2.80;;
48873;SDS011;66155;46.204;5.220;2024-03-17T16:51:50;9.02;;;5.30;;
48873;SDS011;66155;46.204;5.220;2024-03-17T16:56:51;5.38;;;2.95;;
48873;SDS011;66155;46.204;5.220;2024-03-17T17:01:52;8.30;;;3.80;;
48873;SDS011;66155;46.204;5.220;2024-03-17T17:06:53;4.67;;;3.87;;
48873;SDS011;66155;46.204;5.220;2024-03-17T17:11:56;4.13;;;3.22;;
48873;SDS011;66155;46.204;5.220;2024-03-17T17:16:56;5.32;;;3.47;;
48873;SDS011;66155;46.204;5.220;2024-03-17T17:21:57;6.82;;;3.30;;
48873;SDS011;66155;46.204;5.220;2024-03-17T17:26:58;8.57;;;4.47;;
48873;SDS011;66155;46.204;5.220;2024-03-17T17:31:59;5.32;;;3.50;;
48873;SDS011;66155;46.204;5.220;2024-03-17T17:36:59;5.78;;;3.88;;
48873;SDS011;66155;46.204;5.220;2024-03-17T17:41:59;7.23;;;3.90;;
48873;SDS011;66155;46.204;5.220;2024-03-17T17:47:04;7.80;;;4.93;;
48873;SDS011;66155;46.204;5.220;2024-03-17T17:52:05;9.95;;;3.30;;
48873;SDS011;66155;46.204;5.220;2024-03-17T17:57:07;10.70;;;4.43;;
48873;SDS011;66155;46.204;5.220;2024-03-17T18:02:07;6.90;;;5.30;;
48873;SDS011;66155;46.204;5.220;2024-03-17T18:07:08;7.10;;;3.95;;
48873;SDS011;66155;46.204;5.220;2024-03-17T18:12:10;8.10;;;4.00;;
48873;SDS011;66155;46.204;5.220;2024-03-17T18:17:11;7.10;;;4.53;;
48873;SDS011;66155;46.204;5.220;2024-03-17T18:22:17;5.15;;;3.70;;
48873;SDS011;66155;46.204;5.220;2024-03-17T18:27:17;9.07;;;4.40;;
48873;SDS011;66155;46.204;5.220;2024-03-17T18:32:17;5.27;;;3.53;;
48873;SDS011;66155;46.204;5.220;2024-03-17T18:37:18;8.40;;;4.13;;
48873;SDS011;66155;46.204;5.220;2024-03-17T18:42:20;7.88;;;4.03;;
48873;SDS011;66155;46.204;5.220;2024-03-17T18:47:21;4.90;;;4.20;;
48873;SDS011;66155;46.204;5.220;2024-03-17T18:52:21;7.23;;;4.27;;
48873;SDS011;66155;46.204;5.220;2024-03-17T18:57:21;6.80;;;3.53;;
48873;SDS011;66155;46.204;5.220;2024-03-17T19:02:22;5.97;;;3.87;;
48873;SDS011;66155;46.204;5.220;2024-03-17T19:07:23;6.60;;;4.30;;
48873;SDS011;66155;46.204;5.220;2024-03-17T19:12:28;5.57;;;3.40;;
48873;SDS011;66155;46.204;5.220;2024-03-17T19:17:28;7.63;;;3.77;;
48873;SDS011;66155;46.204;5.220;2024-03-17T19:22:39;6.47;;;3.85;;
48873;SDS011;66155;46.204;5.220;2024-03-17T19:27:41;9.55;;;3.88;;
48873;SDS011;66155;46.204;5.220;2024-03-17T19:32:44;7.72;;;4.22;;
48873;SDS011;66155;46.204;5.220;2024-03-17T19:37:46;8.27;;;4.40;;
48873;SDS011;66155;46.204;5.220;2024-03-17T19:42:49;8.35;;;3.80;;
48873;SDS011;66155;46.204;5.220;2024-03-17T19:47:50;8.10;;;4.13;;
48873;SDS011;66155;46.204;5.220;2024-03-17T19:52:50;5.97;;;3.83;;
48873;SDS011;66155;46.204;5.220;2024-03-17T19:57:50;5.17;;;3.40;;
48873;SDS011;66155;46.204;5.220;2024-03-17T20:02:51;5.10;;;3.40;;
48873;SDS011;66155;46.204;5.220;2024-03-17T20:07:54;7.35;;;3.53;;
48873;SDS011;66155;46.204;5.220;2024-03-17T20:12:54;5.05;;;2.83;;
48873;SDS011;66155;46.204;5.220;2024-03-17T20:17:54;5.38;;;3.17;;
48873;SDS011;66155;46.204;5.220;2024-03-17T20:22:55;8.38;;;4.50;;
48873;SDS011;66155;46.204;5.220;2024-03-17T20:27:56;10.15;;;3.90;;
48873;SDS011;66155;46.204;5.220;2024-03-17T20:32:57;7.63;;;3.58;;
48873;SDS011;66155;46.204;5.220;2024-03-17T20:37:59;8.32;;;3.72;;
48873;SDS011;66155;46.204;5.220;2024-03-17T20:43:01;5.50;;;3.28;;
48873;SDS011;66155;46.204;5.220;2024-03-17T20:48:01;4.43;;;3.15;;
48873;SDS011;66155;46.204;5.220;2024-03-17T20:53:02;4.60;;;3.30;;
48873;SDS011;66155;46.204;5.220;2024-03-17T20:58:02;4.13;;;2.67;;
48873;SDS011;66155;46.204;5.220;2024-03-17T21:03:03;4.88;;;2.83;;
48873;SDS011;66155;46.204;5.220;2024-03-17T21:08:04;5.30;;;2.72;;
48873;SDS011;66155;46.204;5.220;2024-03-17T21:13:05;5.90;;;2.90;;
48873;SDS011;66155;46.204;5.220;2024-03-17T21:18:05;5.85;;;2.85;;
48873;SDS011;66155;46.204;5.220;2024-03-17T21:23:06;5.35;;;3.10;;
48873;SDS011;66155;46.204;5.220;2024-03-17T21:28:07;7.97;;;2.77;;
48873;SDS011;66155;46.204;5.220;2024-03-17T21:33:07;7.47;;;3.17;;
48873;SDS011;66155;46.204;5.220;2024-03-17T21:38:07;5.17;;;3.30;;
48873;SDS011;66155;46.204;5.220;2024-03-17T21:43:08;4.28;;;3.08;;
48873;SDS011;66155;46.204;5.220;2024-03-17T21:48:08;5.33;;;2.90;;
48873;SDS011;66155;46.204;5.220;2024-03-17T21:53:08;5.32;;;3.72;;
48873;SDS011;66155;46.204;5.220;2024-03-17T21:58:09;6.60;;;3.20;;
48873;SDS011;66155;46.204;5.220;2024-03-17T22:03:09;8.13;;;3.20;;
48873;SDS011;66155;46.204;5.220;2024-03-17T22:08:10;5.67;;;3.40;;
48873;SDS011;66155;46.204;5.220;2024-03-17T22:13:10;3.93;;;2.80;;
48873;SDS011;66155;46.204;5.220;2024-03-17T22:18:10;4.27;;;3.20;;
48873;SDS011;66155;46.204;5.220;2024-03-17T22:23:11;4.40;;;2.80;;
48873;SDS011;66155;46.204;5.220;2024-03-17T22:28:11;6.07;;;3.07;;
48873;SDS011;66155;46.204;5.220;2024-03-17T22:33:11;4.07;;;3.00;;
48873;SDS011;66155;46.204;5.220;2024-03-17T22:38:12;6.25;;;3.00;;
48873;SDS011;66155;46.204;5.220;2024-03-17T22:43:12;6.30;;;3.43;;
48873;SDS011;66155;46.204;5.220;2024-03-17T22:48:13;5.53;;;2.57;;
48873;SDS011;66155;46.204;5.220;2024-03-17T22:53:14;5.97;;;2.70;;
48873;SDS011;66155;46.204;5.220;2024-03-17T22:58:16;3.55;;;2.40;;
48873;SDS011;66155;46.204;5.220;2024-03-17T23:03:20;4.93;;;2.90;;
48873;SDS011;66155;46.204;5.220;2024-03-17T23:08:21;5.25;;;3.28;;
48873;SDS011;66155;46.204;5.220;2024-03-17T23:13:23;4.00;;;2.83;;
48873;SDS011;66155;46.204;5.220;2024-03-17T23:18:23;6.13;;;2.97;;
48873;SDS011;66155;46.204;5.220;2024-03-17T23:23:25;5.53;;;3.15;;
48873;SDS011;66155;46.204;5.220;2024-03-17T23:28:25;5.90;;;3.28;;
48873;SDS011;66155;46.204;5.220;2024-03-17T23:33:26;4.50;;;2.53;;
48873;SDS011;66155;46.204;5.220;2024-03-17T23:38:26;4.63;;;2.70;;
48873;SDS011;66155;46.204;5.220;2024-03-17T23:43:26;2.50;;;2.30;;
48873;SDS011;66155;46.204;5.220;2024-03-17T23:48:27;2.72;;;2.53;;
48873;SDS011;66155;46.204;5.220;2024-03-17T23:53:28;2.78;;;2.50;;
48873;SDS011;66155;46.204;5.220;2024-03-17T23:58:28;5.27;;;3.00;;
